CEB539 RPLL-ROAH
Flight info
| Callsign | CEB539 |
|---|---|
| Flight time | 2h 6m |
| Altitude | 39000 |
| Route | CAB2P CAB DCT CUY DCT DADNU DCT GUMBO DCT ENTOK |
| Aircraft | A20N/M-SDE2E3FGHIRWXY/LB1 |
Departure
| Time | 2026-04-17 11:04 |
|---|---|
| Airport | Ninoy Aquino International Airport (RPLL) |
Arrival
| Time | 2026-04-17 13:10 |
|---|---|
| Airport | Naha International Airport (ROAH) |
| Time | Latitude | Longitude | Altitude | Speed | Heading |
|---|---|---|---|---|---|
| 2026-04-17 10:48 | 14.51812 | 121.01381 | 39 ft | 0 kts | 44° |
| 2026-04-17 10:56 | 14.51804 | 121.01373 | 39 ft | 2 kts | 45° |
| 2026-04-17 10:56 | 14.51793 | 121.01361 | 39 ft | 2 kts | 46° |
| 2026-04-17 10:57 | 14.51781 | 121.01349 | 37 ft | 2 kts | 47° |
| 2026-04-17 10:57 | 14.51770 | 121.01336 | 37 ft | 2 kts | 49° |
| 2026-04-17 10:57 | 14.51760 | 121.01323 | 36 ft | 2 kts | 54° |
| 2026-04-17 10:57 | 14.51751 | 121.01309 | 37 ft | 2 kts | 67° |
| 2026-04-17 10:58 | 14.51748 | 121.01292 | 36 ft | 2 kts | 118° |
| 2026-04-17 10:58 | 14.51754 | 121.01284 | 37 ft | 1 kts | 137° |
| 2026-04-17 10:59 | 14.51752 | 121.01286 | 36 ft | 2 kts | 137° |
| 2026-04-17 10:59 | 14.51712 | 121.01324 | 38 ft | 14 kts | 135° |
| 2026-04-17 10:59 | 14.51625 | 121.01416 | 35 ft | 21 kts | 135° |
| 2026-04-17 11:00 | 14.51518 | 121.01527 | 34 ft | 23 kts | 135° |
| 2026-04-17 11:00 | 14.51402 | 121.01647 | 33 ft | 24 kts | 135° |
| 2026-04-17 11:00 | 14.51279 | 121.01773 | 31 ft | 26 kts | 135° |
| 2026-04-17 11:00 | 14.51156 | 121.01898 | 32 ft | 23 kts | 135° |
| 2026-04-17 11:01 | 14.51065 | 121.02002 | 36 ft | 15 kts | 111° |
| 2026-04-17 11:01 | 14.51098 | 121.02084 | 38 ft | 13 kts | 62° |
| 2026-04-17 11:01 | 14.51150 | 121.02183 | 38 ft | 18 kts | 62° |
| 2026-04-17 11:01 | 14.51224 | 121.02317 | 36 ft | 25 kts | 59° |
| 2026-04-17 11:02 | 14.51313 | 121.02476 | 33 ft | 28 kts | 60° |
| 2026-04-17 11:02 | 14.51407 | 121.02641 | 30 ft | 24 kts | 60° |
| 2026-04-17 11:02 | 14.51488 | 121.02791 | 27 ft | 22 kts | 65° |
| 2026-04-17 11:02 | 14.51459 | 121.02861 | 26 ft | 12 kts | 155° |
| 2026-04-17 11:03 | 14.51373 | 121.02857 | 26 ft | 14 kts | 217° |
| 2026-04-17 11:03 | 14.51315 | 121.02763 | 28 ft | 29 kts | 239° |
| 2026-04-17 11:03 | 14.51098 | 121.02371 | 39 ft | 93 kts | 240° |
| 2026-04-17 11:03 | 14.50686 | 121.01630 | 51 ft | 142 kts | 240° |
| 2026-04-17 11:04 | 14.50173 | 121.00691 | 482 ft | 140 kts | 241° |
| 2026-04-17 11:04 | 14.49758 | 120.99887 | 1205 ft | 122 kts | 241° |
| 2026-04-17 11:04 | 14.49318 | 120.99025 | 1620 ft | 150 kts | 239° |
| 2026-04-17 11:04 | 14.48772 | 120.98043 | 1988 ft | 165 kts | 237° |
| 2026-04-17 11:05 | 14.48148 | 120.96969 | 2307 ft | 185 kts | 237° |
| 2026-04-17 11:05 | 14.47471 | 120.95758 | 2708 ft | 207 kts | 244° |
| 2026-04-17 11:05 | 14.47258 | 120.94205 | 3119 ft | 235 kts | 278° |
| 2026-04-17 11:05 | 14.47931 | 120.92598 | 3681 ft | 258 kts | 306° |
| 2026-04-17 11:06 | 14.49202 | 120.91192 | 4333 ft | 274 kts | 317° |
| 2026-04-17 11:06 | 14.50638 | 120.89869 | 5280 ft | 278 kts | 318° |
| 2026-04-17 11:06 | 14.52069 | 120.88506 | 6275 ft | 281 kts | 316° |
| 2026-04-17 11:06 | 14.53465 | 120.87082 | 7152 ft | 285 kts | 315° |
| 2026-04-17 11:07 | 14.54852 | 120.85592 | 8034 ft | 289 kts | 314° |
| 2026-04-17 11:07 | 14.56244 | 120.84059 | 8640 ft | 295 kts | 314° |
| 2026-04-17 11:07 | 14.57647 | 120.82506 | 8881 ft | 296 kts | 316° |
| 2026-04-17 11:07 | 14.59354 | 120.81363 | 9050 ft | 295 kts | 342° |
| 2026-04-17 11:08 | 14.61355 | 120.81131 | 9664 ft | 295 kts | 9° |
| 2026-04-17 11:08 | 14.63348 | 120.81584 | 10469 ft | 298 kts | 15° |
| 2026-04-17 11:08 | 14.65437 | 120.82114 | 10781 ft | 321 kts | 15° |
| 2026-04-17 11:08 | 14.67687 | 120.82683 | 11058 ft | 341 kts | 14° |
| 2026-04-17 11:09 | 14.70021 | 120.83265 | 11699 ft | 348 kts | 14° |
| 2026-04-17 11:09 | 14.72390 | 120.83848 | 12469 ft | 351 kts | 14° |
| 2026-04-17 11:09 | 14.74782 | 120.84433 | 13217 ft | 355 kts | 14° |
| 2026-04-17 11:10 | 14.79642 | 120.85619 | 14553 ft | 362 kts | 14° |
| 2026-04-17 11:10 | 14.82104 | 120.86220 | 15204 ft | 365 kts | 14° |
| 2026-04-17 11:10 | 14.84550 | 120.86819 | 15835 ft | 368 kts | 14° |
| 2026-04-17 11:10 | 14.87090 | 120.87440 | 16471 ft | 371 kts | 14° |
| 2026-04-17 11:11 | 14.89622 | 120.88060 | 17091 ft | 375 kts | 14° |
| 2026-04-17 11:11 | 14.92176 | 120.88685 | 17710 ft | 378 kts | 14° |
| 2026-04-17 11:11 | 14.94748 | 120.89315 | 18305 ft | 381 kts | 14° |
| 2026-04-17 11:11 | 14.97306 | 120.89941 | 18792 ft | 385 kts | 14° |
| 2026-04-17 11:12 | 14.99963 | 120.90591 | 19291 ft | 389 kts | 14° |
| 2026-04-17 11:12 | 15.02571 | 120.91230 | 19788 ft | 392 kts | 14° |
| 2026-04-17 11:12 | 15.05241 | 120.91883 | 20287 ft | 396 kts | 14° |
| 2026-04-17 11:12 | 15.07936 | 120.92542 | 20775 ft | 400 kts | 14° |
| 2026-04-17 11:13 | 15.10656 | 120.93207 | 21267 ft | 403 kts | 14° |
| 2026-04-17 11:13 | 15.13400 | 120.93879 | 21740 ft | 407 kts | 14° |
| 2026-04-17 11:13 | 15.16173 | 120.94559 | 22214 ft | 411 kts | 14° |
| 2026-04-17 11:13 | 15.18970 | 120.95244 | 22679 ft | 415 kts | 14° |
| 2026-04-17 11:14 | 15.21784 | 120.95933 | 23137 ft | 418 kts | 14° |
| 2026-04-17 11:14 | 15.24639 | 120.96633 | 23570 ft | 422 kts | 14° |
| 2026-04-17 11:14 | 15.27506 | 120.97337 | 23968 ft | 425 kts | 14° |
| 2026-04-17 11:14 | 15.30389 | 120.98044 | 24376 ft | 427 kts | 14° |
| 2026-04-17 11:15 | 15.33293 | 120.98758 | 24768 ft | 430 kts | 14° |
| 2026-04-17 11:15 | 15.36214 | 120.99476 | 25145 ft | 433 kts | 14° |
| 2026-04-17 11:15 | 15.39155 | 121.00199 | 25519 ft | 435 kts | 14° |
| 2026-04-17 11:15 | 15.42116 | 121.00926 | 25892 ft | 438 kts | 14° |
| 2026-04-17 11:16 | 15.45094 | 121.01658 | 26263 ft | 441 kts | 13° |
| 2026-04-17 11:16 | 15.48014 | 121.02507 | 26603 ft | 443 kts | 19° |
| 2026-04-17 11:16 | 15.50872 | 121.03723 | 26950 ft | 446 kts | 26° |
| 2026-04-17 11:16 | 15.53679 | 121.05131 | 27275 ft | 449 kts | 25° |
| 2026-04-17 11:17 | 15.56499 | 121.06533 | 27616 ft | 451 kts | 25° |
| 2026-04-17 11:17 | 15.59345 | 121.07944 | 27941 ft | 454 kts | 25° |
| 2026-04-17 11:17 | 15.62202 | 121.09359 | 28269 ft | 456 kts | 25° |
| 2026-04-17 11:17 | 15.65075 | 121.10782 | 28588 ft | 459 kts | 25° |
| 2026-04-17 11:18 | 15.67914 | 121.12191 | 28894 ft | 461 kts | 25° |
| 2026-04-17 11:18 | 15.70835 | 121.13641 | 29210 ft | 463 kts | 25° |
| 2026-04-17 11:18 | 15.73752 | 121.15090 | 29496 ft | 466 kts | 25° |
| 2026-04-17 11:18 | 15.76685 | 121.16548 | 29823 ft | 468 kts | 25° |
| 2026-04-17 11:19 | 15.79636 | 121.18015 | 30102 ft | 471 kts | 25° |
| 2026-04-17 11:19 | 15.82596 | 121.19487 | 30384 ft | 473 kts | 25° |
| 2026-04-17 11:19 | 15.85568 | 121.20965 | 30667 ft | 474 kts | 25° |
| 2026-04-17 11:19 | 15.88554 | 121.22451 | 30951 ft | 476 kts | 25° |
| 2026-04-17 11:20 | 15.91547 | 121.23940 | 31276 ft | 477 kts | 25° |
| 2026-04-17 11:20 | 15.94540 | 121.25429 | 31654 ft | 476 kts | 25° |
| 2026-04-17 11:20 | 15.97530 | 121.26918 | 32017 ft | 476 kts | 25° |
| 2026-04-17 11:20 | 16.00514 | 121.28404 | 32361 ft | 475 kts | 25° |
| 2026-04-17 11:21 | 16.03501 | 121.29893 | 32725 ft | 475 kts | 25° |
| 2026-04-17 11:21 | 16.06440 | 121.31358 | 33085 ft | 474 kts | 25° |
| 2026-04-17 11:21 | 16.09446 | 121.32858 | 33425 ft | 473 kts | 25° |
| 2026-04-17 11:21 | 16.12376 | 121.34320 | 33754 ft | 472 kts | 25° |
| 2026-04-17 11:22 | 16.15338 | 121.35797 | 34067 ft | 472 kts | 25° |
| 2026-04-17 11:22 | 16.18297 | 121.37273 | 34331 ft | 471 kts | 25° |
| 2026-04-17 11:22 | 16.21257 | 121.38751 | 34589 ft | 471 kts | 25° |
| 2026-04-17 11:22 | 16.24212 | 121.40228 | 34845 ft | 471 kts | 25° |
| 2026-04-17 11:23 | 16.27166 | 121.41704 | 35125 ft | 469 kts | 25° |
| 2026-04-17 11:23 | 16.30105 | 121.43173 | 35387 ft | 469 kts | 25° |
| 2026-04-17 11:23 | 16.33044 | 121.44642 | 35634 ft | 468 kts | 25° |
| 2026-04-17 11:23 | 16.35982 | 121.46111 | 35906 ft | 468 kts | 25° |
| 2026-04-17 11:24 | 16.38914 | 121.47577 | 36157 ft | 467 kts | 25° |
| 2026-04-17 11:24 | 16.41846 | 121.49044 | 36419 ft | 466 kts | 25° |
| 2026-04-17 11:24 | 16.44780 | 121.50513 | 36663 ft | 466 kts | 25° |
| 2026-04-17 11:24 | 16.47692 | 121.51970 | 36913 ft | 466 kts | 25° |
| 2026-04-17 11:25 | 16.50621 | 121.53438 | 37137 ft | 465 kts | 25° |
| 2026-04-17 11:25 | 16.53535 | 121.54898 | 37356 ft | 465 kts | 25° |
| 2026-04-17 11:25 | 16.56452 | 121.56361 | 37579 ft | 465 kts | 25° |
| 2026-04-17 11:25 | 16.59371 | 121.57824 | 37807 ft | 464 kts | 25° |
| 2026-04-17 11:26 | 16.62244 | 121.59265 | 38012 ft | 464 kts | 25° |
| 2026-04-17 11:26 | 16.65153 | 121.60724 | 38228 ft | 464 kts | 25° |
| 2026-04-17 11:26 | 16.68054 | 121.62180 | 38442 ft | 463 kts | 25° |
| 2026-04-17 11:26 | 16.70960 | 121.63639 | 38639 ft | 462 kts | 25° |
| 2026-04-17 11:27 | 16.73853 | 121.65092 | 38783 ft | 462 kts | 25° |
| 2026-04-17 11:27 | 16.76753 | 121.66549 | 38884 ft | 462 kts | 25° |
| 2026-04-17 11:27 | 16.82546 | 121.69462 | 38894 ft | 462 kts | 25° |
| 2026-04-17 11:28 | 16.88345 | 121.72380 | 38892 ft | 462 kts | 25° |
| 2026-04-17 11:28 | 16.94131 | 121.75294 | 38895 ft | 462 kts | 25° |
| 2026-04-17 11:29 | 16.99875 | 121.78332 | 38899 ft | 463 kts | 26° |
| 2026-04-17 11:29 | 17.05607 | 121.81403 | 38899 ft | 462 kts | 26° |
| 2026-04-17 11:30 | 17.11289 | 121.84430 | 38901 ft | 462 kts | 26° |
| 2026-04-17 11:30 | 17.17020 | 121.87477 | 38908 ft | 462 kts | 26° |
| 2026-04-17 11:31 | 17.22752 | 121.90527 | 38912 ft | 462 kts | 26° |
| 2026-04-17 11:31 | 17.28476 | 121.93575 | 38920 ft | 462 kts | 26° |
| 2026-04-17 11:32 | 17.34209 | 121.96630 | 38924 ft | 462 kts | 26° |
| 2026-04-17 11:32 | 17.39933 | 121.99682 | 38935 ft | 462 kts | 26° |
| 2026-04-17 11:33 | 17.45656 | 122.02736 | 38941 ft | 461 kts | 26° |
| 2026-04-17 11:33 | 17.51379 | 122.05792 | 38942 ft | 461 kts | 26° |
| 2026-04-17 11:34 | 17.57092 | 122.08844 | 38945 ft | 461 kts | 26° |
| 2026-04-17 11:34 | 17.62808 | 122.11901 | 38940 ft | 461 kts | 26° |
| 2026-04-17 11:35 | 17.68518 | 122.14957 | 38935 ft | 460 kts | 26° |
| 2026-04-17 11:35 | 17.74221 | 122.18011 | 38932 ft | 460 kts | 26° |
| 2026-04-17 11:36 | 17.79938 | 122.21053 | 38929 ft | 460 kts | 24° |
| 2026-04-17 11:36 | 17.85894 | 122.23367 | 38933 ft | 459 kts | 14° |
| 2026-04-17 11:37 | 17.91120 | 122.24545 | 38931 ft | 459 kts | 9° |
| 2026-04-17 11:37 | 17.97396 | 122.25810 | 38932 ft | 459 kts | 10° |
| 2026-04-17 11:38 | 18.03632 | 122.27073 | 38933 ft | 460 kts | 9° |
| 2026-04-17 11:38 | 18.09919 | 122.28340 | 38937 ft | 460 kts | 9° |
| 2026-04-17 11:39 | 18.16221 | 122.29610 | 38939 ft | 461 kts | 9° |
| 2026-04-17 11:39 | 18.22528 | 122.30881 | 38945 ft | 461 kts | 9° |
| 2026-04-17 11:40 | 18.28844 | 122.32156 | 38943 ft | 462 kts | 9° |
| 2026-04-17 11:40 | 18.35169 | 122.33433 | 38941 ft | 463 kts | 9° |
| 2026-04-17 11:41 | 18.41500 | 122.34713 | 38952 ft | 463 kts | 9° |
| 2026-04-17 11:41 | 18.47838 | 122.35995 | 38941 ft | 463 kts | 9° |
| 2026-04-17 11:42 | 18.54151 | 122.37272 | 38942 ft | 462 kts | 9° |
| 2026-04-17 11:42 | 18.60428 | 122.38544 | 38943 ft | 462 kts | 9° |
| 2026-04-17 11:43 | 18.66750 | 122.39825 | 38945 ft | 462 kts | 9° |
| 2026-04-17 11:43 | 18.73089 | 122.41112 | 38944 ft | 464 kts | 9° |
| 2026-04-17 11:44 | 18.79433 | 122.42399 | 38943 ft | 464 kts | 9° |
| 2026-04-17 11:44 | 18.85768 | 122.43687 | 38948 ft | 464 kts | 9° |
| 2026-04-17 11:45 | 18.92116 | 122.44977 | 38945 ft | 464 kts | 9° |
| 2026-04-17 11:45 | 18.98423 | 122.46261 | 38947 ft | 464 kts | 9° |
| 2026-04-17 11:46 | 19.04777 | 122.47555 | 38948 ft | 464 kts | 9° |
| 2026-04-17 11:46 | 19.11132 | 122.48850 | 38946 ft | 465 kts | 9° |
| 2026-04-17 11:47 | 19.17480 | 122.50145 | 38946 ft | 465 kts | 9° |
| 2026-04-17 11:47 | 19.23827 | 122.51441 | 38949 ft | 465 kts | 9° |
| 2026-04-17 11:48 | 19.30184 | 122.52739 | 38947 ft | 465 kts | 9° |
| 2026-04-17 11:48 | 19.36499 | 122.54031 | 38952 ft | 465 kts | 9° |
| 2026-04-17 11:49 | 19.42845 | 122.55329 | 38950 ft | 465 kts | 9° |
| 2026-04-17 11:49 | 19.49194 | 122.56629 | 38948 ft | 465 kts | 9° |
| 2026-04-17 11:50 | 19.55543 | 122.57930 | 38948 ft | 465 kts | 9° |
| 2026-04-17 11:50 | 19.61896 | 122.59233 | 38950 ft | 465 kts | 9° |
| 2026-04-17 11:51 | 19.68248 | 122.60537 | 38946 ft | 465 kts | 9° |
| 2026-04-17 11:51 | 19.74597 | 122.61841 | 38945 ft | 465 kts | 9° |
| 2026-04-17 11:52 | 19.80953 | 122.63148 | 38948 ft | 465 kts | 8° |
| 2026-04-17 11:52 | 19.87307 | 122.64456 | 38945 ft | 465 kts | 8° |
| 2026-04-17 11:53 | 19.93656 | 122.65763 | 38947 ft | 465 kts | 8° |
| 2026-04-17 11:53 | 20.00009 | 122.67073 | 38949 ft | 465 kts | 8° |
| 2026-04-17 11:54 | 20.06364 | 122.68383 | 38948 ft | 465 kts | 8° |
| 2026-04-17 11:54 | 20.12679 | 122.69687 | 38950 ft | 465 kts | 8° |
| 2026-04-17 11:55 | 20.19048 | 122.71003 | 38948 ft | 466 kts | 8° |
| 2026-04-17 11:55 | 20.25417 | 122.72320 | 38948 ft | 466 kts | 8° |
| 2026-04-17 11:56 | 20.31784 | 122.73638 | 38952 ft | 466 kts | 8° |
| 2026-04-17 11:56 | 20.38152 | 122.74957 | 38951 ft | 466 kts | 8° |
| 2026-04-17 11:57 | 20.44487 | 122.76270 | 38953 ft | 466 kts | 8° |
| 2026-04-17 11:57 | 20.50862 | 122.77593 | 38952 ft | 466 kts | 8° |
| 2026-04-17 11:58 | 20.57228 | 122.78915 | 38952 ft | 466 kts | 8° |
| 2026-04-17 11:58 | 20.63610 | 122.80241 | 38951 ft | 466 kts | 8° |
| 2026-04-17 11:59 | 20.69982 | 122.81566 | 38951 ft | 467 kts | 8° |
| 2026-04-17 11:59 | 20.76356 | 122.82893 | 38946 ft | 467 kts | 8° |
| 2026-04-17 12:00 | 20.82732 | 122.84222 | 38950 ft | 467 kts | 8° |
| 2026-04-17 12:00 | 20.89108 | 122.85551 | 38953 ft | 467 kts | 8° |
| 2026-04-17 12:01 | 20.95450 | 122.86875 | 38951 ft | 467 kts | 8° |
| 2026-04-17 12:01 | 21.01842 | 122.88210 | 38948 ft | 467 kts | 8° |
| 2026-04-17 12:02 | 21.08224 | 122.89545 | 38944 ft | 467 kts | 8° |
| 2026-04-17 12:02 | 21.14607 | 122.90881 | 38947 ft | 467 kts | 8° |
| 2026-04-17 12:03 | 21.20989 | 122.92217 | 38945 ft | 467 kts | 8° |
| 2026-04-17 12:03 | 21.27333 | 122.93547 | 38943 ft | 467 kts | 8° |
| 2026-04-17 12:04 | 21.33726 | 122.94889 | 38943 ft | 468 kts | 8° |
| 2026-04-17 12:04 | 21.40117 | 122.96231 | 38940 ft | 467 kts | 8° |
| 2026-04-17 12:05 | 21.46494 | 122.97571 | 38932 ft | 467 kts | 8° |
| 2026-04-17 12:05 | 21.52863 | 122.98911 | 38932 ft | 466 kts | 8° |
| 2026-04-17 12:06 | 21.59232 | 123.00252 | 38925 ft | 466 kts | 8° |
| 2026-04-17 12:06 | 21.65595 | 123.01593 | 38919 ft | 466 kts | 8° |
| 2026-04-17 12:07 | 21.71963 | 123.02936 | 38940 ft | 469 kts | 8° |
| 2026-04-17 12:07 | 21.78384 | 123.04291 | 38943 ft | 470 kts | 7° |
| 2026-04-17 12:08 | 21.84764 | 123.05641 | 38943 ft | 470 kts | 7° |
| 2026-04-17 12:08 | 21.91184 | 123.06999 | 38945 ft | 471 kts | 7° |
| 2026-04-17 12:09 | 21.97613 | 123.08360 | 38943 ft | 471 kts | 7° |
| 2026-04-17 12:09 | 22.04054 | 123.09725 | 38943 ft | 471 kts | 7° |
| 2026-04-17 12:10 | 22.10491 | 123.11091 | 38948 ft | 472 kts | 7° |
| 2026-04-17 12:10 | 22.16936 | 123.12459 | 38951 ft | 472 kts | 7° |
| 2026-04-17 12:11 | 22.23386 | 123.13830 | 38953 ft | 472 kts | 7° |
| 2026-04-17 12:12 | 22.33082 | 123.15893 | 38952 ft | 473 kts | 7° |
| 2026-04-17 12:12 | 22.39494 | 123.17258 | 38952 ft | 473 kts | 7° |
| 2026-04-17 12:13 | 22.45956 | 123.18636 | 38953 ft | 473 kts | 7° |
| 2026-04-17 12:13 | 22.52423 | 123.20016 | 38946 ft | 473 kts | 7° |
| 2026-04-17 12:14 | 22.58892 | 123.21398 | 38948 ft | 474 kts | 7° |
| 2026-04-17 12:14 | 22.65365 | 123.22782 | 38951 ft | 474 kts | 7° |
| 2026-04-17 12:15 | 22.71829 | 123.24164 | 38948 ft | 474 kts | 7° |
| 2026-04-17 12:15 | 22.78211 | 123.26066 | 38948 ft | 479 kts | 17° |
| 2026-04-17 12:16 | 22.84313 | 123.28911 | 38946 ft | 481 kts | 20° |
| 2026-04-17 12:16 | 22.90448 | 123.31829 | 38945 ft | 481 kts | 20° |
| 2026-04-17 12:17 | 22.96580 | 123.34750 | 38949 ft | 481 kts | 20° |
| 2026-04-17 12:17 | 23.02713 | 123.37681 | 38951 ft | 481 kts | 20° |
| 2026-04-17 12:18 | 23.08843 | 123.40616 | 38951 ft | 482 kts | 20° |
| 2026-04-17 12:18 | 23.14982 | 123.43558 | 38952 ft | 482 kts | 20° |
| 2026-04-17 12:19 | 23.21125 | 123.46505 | 38955 ft | 482 kts | 20° |
| 2026-04-17 12:19 | 23.27228 | 123.49436 | 38956 ft | 483 kts | 20° |
| 2026-04-17 12:20 | 23.33390 | 123.52398 | 38956 ft | 483 kts | 20° |
| 2026-04-17 12:20 | 23.39536 | 123.55355 | 38958 ft | 484 kts | 20° |
| 2026-04-17 12:21 | 23.45695 | 123.58321 | 38960 ft | 484 kts | 20° |
| 2026-04-17 12:21 | 23.51855 | 123.61291 | 38964 ft | 484 kts | 20° |
| 2026-04-17 12:22 | 23.58026 | 123.64270 | 38964 ft | 485 kts | 20° |
| 2026-04-17 12:22 | 23.63153 | 123.66747 | 38964 ft | 485 kts | 20° |
| 2026-04-17 12:23 | 23.70366 | 123.70235 | 38967 ft | 485 kts | 20° |
| 2026-04-17 12:23 | 23.75499 | 123.72720 | 38968 ft | 485 kts | 20° |
| 2026-04-17 12:24 | 23.81676 | 123.75713 | 38974 ft | 485 kts | 20° |
| 2026-04-17 12:24 | 23.88845 | 123.79191 | 38966 ft | 486 kts | 20° |
| 2026-04-17 12:25 | 23.93985 | 123.81686 | 38969 ft | 486 kts | 20° |
| 2026-04-17 12:25 | 24.00164 | 123.84689 | 38968 ft | 486 kts | 20° |
| 2026-04-17 12:26 | 24.06348 | 123.87698 | 38966 ft | 486 kts | 20° |
| 2026-04-17 12:26 | 24.12531 | 123.90710 | 38964 ft | 486 kts | 20° |
| 2026-04-17 12:27 | 24.18721 | 123.93729 | 38961 ft | 487 kts | 20° |
| 2026-04-17 12:27 | 24.24921 | 123.96755 | 38964 ft | 487 kts | 20° |
| 2026-04-17 12:28 | 24.31116 | 123.99782 | 38953 ft | 487 kts | 20° |
| 2026-04-17 12:28 | 24.37311 | 124.02813 | 38952 ft | 488 kts | 20° |
| 2026-04-17 12:29 | 24.43509 | 124.05848 | 38947 ft | 488 kts | 20° |
| 2026-04-17 12:29 | 24.49673 | 124.08869 | 38949 ft | 488 kts | 20° |
| 2026-04-17 12:30 | 24.55878 | 124.11915 | 38954 ft | 489 kts | 20° |
| 2026-04-17 12:30 | 24.62083 | 124.14964 | 38957 ft | 489 kts | 20° |
| 2026-04-17 12:31 | 24.68306 | 124.18025 | 38960 ft | 489 kts | 20° |
| 2026-04-17 12:31 | 24.74518 | 124.21083 | 38970 ft | 489 kts | 20° |
| 2026-04-17 12:32 | 24.80747 | 124.24154 | 38972 ft | 490 kts | 20° |
| 2026-04-17 12:32 | 24.86968 | 124.27224 | 38972 ft | 490 kts | 20° |
| 2026-04-17 12:33 | 24.93152 | 124.30279 | 38971 ft | 490 kts | 20° |
| 2026-04-17 12:33 | 24.99383 | 124.33361 | 38974 ft | 491 kts | 20° |
| 2026-04-17 12:34 | 25.05617 | 124.36447 | 38974 ft | 491 kts | 20° |
| 2026-04-17 12:34 | 25.11854 | 124.39539 | 38972 ft | 491 kts | 20° |
| 2026-04-17 12:35 | 25.18092 | 124.42635 | 38973 ft | 491 kts | 20° |
| 2026-04-17 12:35 | 25.24330 | 124.45734 | 38974 ft | 492 kts | 20° |
| 2026-04-17 12:37 | 25.49268 | 124.58158 | 38970 ft | 492 kts | 20° |
| 2026-04-17 12:38 | 25.55507 | 124.61276 | 38976 ft | 492 kts | 20° |
| 2026-04-17 12:38 | 25.61757 | 124.64402 | 38978 ft | 492 kts | 20° |
| 2026-04-17 12:39 | 25.68007 | 124.67532 | 38976 ft | 492 kts | 20° |
| 2026-04-17 12:39 | 25.74244 | 124.70659 | 38977 ft | 492 kts | 20° |
| 2026-04-17 12:40 | 25.80481 | 124.73790 | 38970 ft | 492 kts | 20° |
| 2026-04-17 12:40 | 25.86719 | 124.76925 | 38980 ft | 492 kts | 20° |
| 2026-04-17 12:41 | 25.92965 | 124.80068 | 38986 ft | 492 kts | 20° |
| 2026-04-17 12:41 | 25.99196 | 124.83206 | 38976 ft | 492 kts | 20° |
| 2026-04-17 12:42 | 26.05429 | 124.86349 | 38976 ft | 492 kts | 20° |
| 2026-04-17 12:42 | 26.11622 | 124.89476 | 38974 ft | 492 kts | 20° |
| 2026-04-17 12:43 | 26.17850 | 124.92623 | 38976 ft | 492 kts | 20° |
| 2026-04-17 12:43 | 26.23915 | 124.96216 | 38973 ft | 498 kts | 34° |
| 2026-04-17 12:44 | 26.28734 | 125.01788 | 38967 ft | 504 kts | 55° |
| 2026-04-17 12:44 | 26.30459 | 125.05191 | 38961 ft | 505 kts | 66° |
| 2026-04-17 12:44 | 26.31638 | 125.08876 | 38953 ft | 505 kts | 77° |
| 2026-04-17 12:44 | 26.32236 | 125.12723 | 38780 ft | 505 kts | 88° |
| 2026-04-17 12:45 | 26.32330 | 125.16632 | 38546 ft | 504 kts | 92° |
| 2026-04-17 12:45 | 26.32378 | 125.20541 | 38278 ft | 503 kts | 91° |
| 2026-04-17 12:45 | 26.32432 | 125.24438 | 38014 ft | 503 kts | 91° |
| 2026-04-17 12:45 | 26.32487 | 125.28340 | 37585 ft | 505 kts | 91° |
| 2026-04-17 12:46 | 26.32542 | 125.32276 | 36871 ft | 509 kts | 91° |
| 2026-04-17 12:46 | 26.32595 | 125.36238 | 36015 ft | 513 kts | 91° |
| 2026-04-17 12:46 | 26.32647 | 125.40220 | 35242 ft | 515 kts | 90° |
| 2026-04-17 12:46 | 26.32698 | 125.44238 | 34454 ft | 518 kts | 90° |
| 2026-04-17 12:47 | 26.32749 | 125.48261 | 33568 ft | 522 kts | 90° |
| 2026-04-17 12:47 | 26.32800 | 125.52307 | 32769 ft | 522 kts | 90° |
| 2026-04-17 12:47 | 26.32851 | 125.56357 | 31920 ft | 523 kts | 90° |
| 2026-04-17 12:47 | 26.32900 | 125.60415 | 31082 ft | 524 kts | 91° |
| 2026-04-17 12:48 | 26.32947 | 125.64462 | 30559 ft | 518 kts | 91° |
| 2026-04-17 12:48 | 26.32993 | 125.68410 | 29907 ft | 515 kts | 91° |
| 2026-04-17 12:48 | 26.33039 | 125.72428 | 29263 ft | 509 kts | 91° |
| 2026-04-17 12:48 | 26.33081 | 125.76307 | 28665 ft | 504 kts | 91° |
| 2026-04-17 12:49 | 26.33122 | 125.80198 | 28059 ft | 499 kts | 91° |
| 2026-04-17 12:49 | 26.33162 | 125.84041 | 27461 ft | 494 kts | 91° |
| 2026-04-17 12:49 | 26.33200 | 125.87857 | 26863 ft | 490 kts | 91° |
| 2026-04-17 12:49 | 26.33237 | 125.91641 | 26223 ft | 486 kts | 91° |
| 2026-04-17 12:50 | 26.33273 | 125.95397 | 25649 ft | 482 kts | 91° |
| 2026-04-17 12:50 | 26.33307 | 125.99128 | 25076 ft | 478 kts | 91° |
| 2026-04-17 12:50 | 26.33341 | 126.02831 | 24483 ft | 475 kts | 91° |
| 2026-04-17 12:50 | 26.33373 | 126.06511 | 23886 ft | 473 kts | 91° |
| 2026-04-17 12:51 | 26.33404 | 126.10158 | 23248 ft | 470 kts | 91° |
| 2026-04-17 12:51 | 26.33434 | 126.13781 | 22684 ft | 464 kts | 91° |
| 2026-04-17 12:51 | 26.33464 | 126.17365 | 22104 ft | 459 kts | 91° |
| 2026-04-17 12:51 | 26.33492 | 126.20900 | 21530 ft | 454 kts | 91° |
| 2026-04-17 12:52 | 26.33519 | 126.24399 | 20964 ft | 449 kts | 91° |
| 2026-04-17 12:52 | 26.33544 | 126.27862 | 20392 ft | 445 kts | 91° |
| 2026-04-17 12:52 | 26.33569 | 126.31285 | 19803 ft | 441 kts | 91° |
| 2026-04-17 12:52 | 26.33592 | 126.34696 | 19264 ft | 436 kts | 91° |
| 2026-04-17 12:53 | 26.33614 | 126.38066 | 18701 ft | 433 kts | 91° |
| 2026-04-17 12:53 | 26.33636 | 126.41414 | 18123 ft | 430 kts | 91° |
| 2026-04-17 12:53 | 26.33655 | 126.44680 | 17577 ft | 424 kts | 91° |
| 2026-04-17 12:53 | 26.33674 | 126.47943 | 17028 ft | 418 kts | 91° |
| 2026-04-17 12:54 | 26.33690 | 126.50990 | 16528 ft | 413 kts | 91° |
| 2026-04-17 12:54 | 26.33707 | 126.54185 | 15994 ft | 409 kts | 90° |
| 2026-04-17 12:54 | 26.33722 | 126.57344 | 15469 ft | 405 kts | 90° |
| 2026-04-17 12:54 | 26.33738 | 126.60473 | 14947 ft | 401 kts | 90° |
| 2026-04-17 12:55 | 26.33751 | 126.63430 | 14438 ft | 399 kts | 90° |
| 2026-04-17 12:55 | 26.33764 | 126.66512 | 13896 ft | 397 kts | 89° |
| 2026-04-17 12:55 | 26.33777 | 126.69574 | 13401 ft | 392 kts | 89° |
| 2026-04-17 12:55 | 26.33789 | 126.72592 | 12897 ft | 387 kts | 89° |
| 2026-04-17 12:56 | 26.33800 | 126.75572 | 12469 ft | 381 kts | 89° |
| 2026-04-17 12:56 | 26.33810 | 126.78510 | 12017 ft | 376 kts | 89° |
| 2026-04-17 12:56 | 26.33821 | 126.81418 | 11542 ft | 373 kts | 89° |
| 2026-04-17 12:56 | 26.33831 | 126.84259 | 11075 ft | 369 kts | 89° |
| 2026-04-17 12:57 | 26.33840 | 126.87109 | 10604 ft | 367 kts | 89° |
| 2026-04-17 12:57 | 26.33847 | 126.89910 | 10409 ft | 355 kts | 88° |
| 2026-04-17 12:57 | 26.33853 | 126.92609 | 10284 ft | 341 kts | 88° |
| 2026-04-17 12:57 | 26.33858 | 126.95204 | 10160 ft | 328 kts | 88° |
| 2026-04-17 12:58 | 26.33864 | 126.97725 | 9869 ft | 323 kts | 88° |
| 2026-04-17 12:58 | 26.33870 | 127.00201 | 9596 ft | 317 kts | 88° |
| 2026-04-17 12:58 | 26.33877 | 127.02637 | 9247 ft | 313 kts | 88° |
| 2026-04-17 12:58 | 26.33882 | 127.05052 | 8894 ft | 310 kts | 89° |
| 2026-04-17 12:59 | 26.33887 | 127.07252 | 8576 ft | 307 kts | 89° |
| 2026-04-17 12:59 | 26.33891 | 127.09621 | 8231 ft | 304 kts | 89° |
| 2026-04-17 12:59 | 26.33895 | 127.11964 | 7891 ft | 301 kts | 89° |
| 2026-04-17 12:59 | 26.33899 | 127.14286 | 7545 ft | 298 kts | 89° |
| 2026-04-17 13:00 | 26.33903 | 127.16591 | 7212 ft | 296 kts | 89° |
| 2026-04-17 13:00 | 26.33905 | 127.18873 | 6877 ft | 293 kts | 89° |
| 2026-04-17 13:00 | 26.33907 | 127.21135 | 6550 ft | 291 kts | 90° |
| 2026-04-17 13:00 | 26.33909 | 127.23380 | 6206 ft | 288 kts | 90° |
| 2026-04-17 13:01 | 26.33910 | 127.25605 | 5873 ft | 285 kts | 90° |
| 2026-04-17 13:01 | 26.33911 | 127.27808 | 5545 ft | 282 kts | 90° |
| 2026-04-17 13:01 | 26.33911 | 127.29984 | 5228 ft | 280 kts | 90° |
| 2026-04-17 13:01 | 26.33911 | 127.32143 | 4905 ft | 277 kts | 90° |
| 2026-04-17 13:02 | 26.33910 | 127.34287 | 4575 ft | 275 kts | 90° |
| 2026-04-17 13:02 | 26.33910 | 127.36414 | 4257 ft | 273 kts | 90° |
| 2026-04-17 13:02 | 26.33910 | 127.38520 | 3944 ft | 271 kts | 90° |
| 2026-04-17 13:02 | 26.33909 | 127.40611 | 3631 ft | 269 kts | 90° |
| 2026-04-17 13:03 | 26.33908 | 127.42661 | 3328 ft | 267 kts | 91° |
| 2026-04-17 13:03 | 26.33909 | 127.44727 | 3012 ft | 265 kts | 91° |
| 2026-04-17 13:03 | 26.33909 | 127.46772 | 2706 ft | 262 kts | 92° |
| 2026-04-17 13:03 | 26.33908 | 127.48788 | 2408 ft | 258 kts | 92° |
| 2026-04-17 13:04 | 26.33905 | 127.50781 | 2134 ft | 255 kts | 92° |
| 2026-04-17 13:04 | 26.33900 | 127.52775 | 2070 ft | 254 kts | 92° |
| 2026-04-17 13:04 | 26.33910 | 127.54697 | 2012 ft | 242 kts | 90° |
| 2026-04-17 13:04 | 26.33979 | 127.56511 | 1873 ft | 225 kts | 89° |
| 2026-04-17 13:05 | 26.34062 | 127.58184 | 1762 ft | 209 kts | 90° |
| 2026-04-17 13:05 | 26.34137 | 127.59732 | 1727 ft | 194 kts | 90° |
| 2026-04-17 13:05 | 26.34200 | 127.61169 | 1641 ft | 177 kts | 90° |
| 2026-04-17 13:05 | 26.34012 | 127.62429 | 1556 ft | 154 kts | 117° |
| 2026-04-17 13:06 | 26.33433 | 127.63321 | 1454 ft | 133 kts | 141° |
| 2026-04-17 13:06 | 26.32686 | 127.63835 | 1304 ft | 122 kts | 161° |
| 2026-04-17 13:06 | 26.31869 | 127.64011 | 1303 ft | 124 kts | 178° |
| 2026-04-17 13:06 | 26.31000 | 127.64034 | 1292 ft | 125 kts | 177° |
| 2026-04-17 13:07 | 26.30124 | 127.64075 | 1292 ft | 126 kts | 176° |
| 2026-04-17 13:07 | 26.29245 | 127.64121 | 1293 ft | 127 kts | 176° |
| 2026-04-17 13:07 | 26.28659 | 127.64151 | 1253 ft | 127 kts | 176° |
| 2026-04-17 13:07 | 26.27786 | 127.64194 | 1251 ft | 124 kts | 176° |
| 2026-04-17 13:08 | 26.26920 | 127.64236 | 1254 ft | 124 kts | 176° |
| 2026-04-17 13:08 | 26.26054 | 127.64278 | 1136 ft | 124 kts | 176° |
| 2026-04-17 13:08 | 26.25203 | 127.64319 | 936 ft | 122 kts | 176° |
| 2026-04-17 13:08 | 26.24366 | 127.64359 | 770 ft | 116 kts | 176° |
| 2026-04-17 13:09 | 26.23535 | 127.64394 | 604 ft | 122 kts | 175° |
| 2026-04-17 13:09 | 26.22682 | 127.64448 | 425 ft | 123 kts | 175° |
| 2026-04-17 13:09 | 26.21831 | 127.64480 | 243 ft | 121 kts | 175° |
| 2026-04-17 13:09 | 26.20982 | 127.64524 | 88 ft | 122 kts | 175° |
| 2026-04-17 13:10 | 26.20155 | 127.64566 | 19 ft | 113 kts | 176° |
| 2026-04-17 13:10 | 26.19703 | 127.64589 | 17 ft | 23 kts | 178° |
| 2026-04-17 13:10 | 26.19640 | 127.64590 | 17 ft | 3 kts | 179° |
| 2026-04-17 13:10 | 26.19588 | 127.64592 | 17 ft | 11 kts | 176° |
| 2026-04-17 13:11 | 26.19506 | 127.64606 | 17 ft | 13 kts | 159° |
| 2026-04-17 13:11 | 26.19477 | 127.64684 | 18 ft | 11 kts | 88° |
| 2026-04-17 13:11 | 26.19490 | 127.64776 | 19 ft | 13 kts | 64° |
| 2026-04-17 13:11 | 26.19565 | 127.64803 | 19 ft | 13 kts | 357° |
| 2026-04-17 13:12 | 26.19667 | 127.64799 | 19 ft | 17 kts | 358° |
| 2026-04-17 13:12 | 26.19946 | 127.64785 | 19 ft | 23 kts | 357° |
| 2026-04-17 13:12 | 26.20108 | 127.64778 | 19 ft | 23 kts | 358° |
| 2026-04-17 13:13 | 26.20269 | 127.64771 | 19 ft | 21 kts | 357° |
| 2026-04-17 13:13 | 26.20423 | 127.64762 | 19 ft | 23 kts | 358° |
| 2026-04-17 13:13 | 26.20585 | 127.64756 | 19 ft | 23 kts | 358° |
| 2026-04-17 13:13 | 26.20750 | 127.64749 | 19 ft | 23 kts | 358° |
| 2026-04-17 13:14 | 26.20908 | 127.64741 | 19 ft | 20 kts | 358° |
| 2026-04-17 13:14 | 26.20994 | 127.64778 | 19 ft | 10 kts | 95° |
| 2026-04-17 13:14 | 26.20969 | 127.64851 | 19 ft | 8 kts | 104° |
| 2026-04-17 13:14 | 26.20970 | 127.64901 | 21 ft | 4 kts | 83° |
| 2026-04-17 13:15 | 26.20979 | 127.64917 | 20 ft | 2 kts | 39° |
| 2026-04-17 13:15 | 26.20993 | 127.64916 | 19 ft | 4 kts | 0° |
| 2026-04-17 13:15 | 26.21018 | 127.64934 | 19 ft | 4 kts | 63° |
| 2026-04-17 13:15 | 26.21022 | 127.64962 | 19 ft | 3 kts | 85° |
| 2026-04-17 13:16 | 26.21022 | 127.64967 | 19 ft | 0 kts | 86° |